createdAt,value
2017-07-20T00:01:08.415Z,0
2017-07-20T00:02:21.044Z,0
2017-07-20T00:03:33.657Z,0
2017-07-20T00:04:45.947Z,0
2017-07-20T00:05:58.577Z,0
2017-07-20T00:07:10.614Z,0
2017-07-20T00:08:22.890Z,0
2017-07-20T00:09:35.445Z,0
2017-07-20T00:10:48.305Z,0
2017-07-20T00:12:00.610Z,0
2017-07-20T00:13:12.650Z,0
2017-07-20T00:14:24.965Z,0
2017-07-20T00:15:37.265Z,0
2017-07-20T00:16:49.887Z,0
2017-07-20T00:18:02.455Z,0
2017-07-20T00:19:15.069Z,0
2017-07-20T00:20:27.688Z,0
2017-07-20T00:21:40.291Z,0
2017-07-20T00:22:52.952Z,0
2017-07-20T00:24:05.562Z,0
2017-07-20T00:25:18.182Z,0
2017-07-20T00:26:30.763Z,0
2017-07-20T00:27:43.360Z,0
2017-07-20T00:28:55.977Z,0
2017-07-20T00:30:08.315Z,0
2017-07-20T00:31:20.639Z,0
2017-07-20T00:32:33.234Z,0
2017-07-20T00:33:45.509Z,0
2017-07-20T00:34:58.115Z,0
2017-07-20T00:36:10.083Z,0
2017-07-20T00:37:22.758Z,0
2017-07-20T00:38:35.010Z,0
2017-07-20T00:39:47.334Z,0
2017-07-20T00:40:59.643Z,0
2017-07-20T00:42:11.966Z,0
2017-07-20T00:43:24.259Z,0
2017-07-20T00:44:36.878Z,0
2017-07-20T00:45:49.542Z,0
2017-07-20T00:47:01.823Z,0
2017-07-20T00:48:13.856Z,0
2017-07-20T00:49:26.233Z,0
2017-07-20T00:50:38.819Z,0
2017-07-20T00:51:51.539Z,0
2017-07-20T00:53:03.847Z,0
2017-07-20T00:54:16.450Z,0
2017-07-20T00:55:28.776Z,0
2017-07-20T00:56:40.748Z,0
2017-07-20T00:57:53.346Z,0
2017-07-20T00:59:05.965Z,0
2017-07-20T01:00:18.311Z,0
2017-07-20T01:01:30.931Z,0
2017-07-20T01:02:43.557Z,0
2017-07-20T01:03:56.179Z,0
2017-07-20T01:05:08.832Z,0
2017-07-20T01:06:21.120Z,0
2017-07-20T01:07:33.774Z,0
2017-07-20T01:08:46.057Z,0
2017-07-20T01:09:58.384Z,0
2017-07-20T01:11:10.705Z,0
2017-07-20T01:12:23.301Z,0
2017-07-20T01:13:35.921Z,0
2017-07-20T01:14:48.238Z,0
2017-07-20T01:16:00.559Z,0
2017-07-20T01:17:12.853Z,0
2017-07-20T01:18:25.468Z,0
2017-07-20T01:19:38.073Z,0
2017-07-20T01:20:50.366Z,0
2017-07-20T01:22:02.662Z,0
2017-07-20T01:23:15.283Z,0
2017-07-20T01:24:27.589Z,0
2017-07-20T01:25:39.883Z,0
2017-07-20T01:26:52.744Z,0
2017-07-20T01:28:05.351Z,0
2017-07-20T01:29:17.911Z,0
2017-07-20T01:30:30.507Z,0
2017-07-20T01:31:42.829Z,0
2017-07-20T01:32:55.404Z,0
2017-07-20T01:34:07.400Z,0
2017-07-20T01:35:19.746Z,0
2017-07-20T01:36:32.320Z,0
2017-07-20T01:37:45.221Z,0
2017-07-20T01:38:57.880Z,0
2017-07-20T01:40:09.856Z,0
2017-07-20T01:41:22.149Z,0
2017-07-20T01:42:34.774Z,0
2017-07-20T01:43:47.399Z,0
2017-07-20T01:45:00.067Z,0
2017-07-20T01:46:12.731Z,0
2017-07-20T01:47:24.736Z,0
2017-07-20T01:48:37.397Z,0
2017-07-20T01:49:49.986Z,0
2017-07-20T01:51:02.297Z,0
2017-07-20T01:52:14.936Z,0
2017-07-20T01:53:27.241Z,0
2017-07-20T01:54:39.838Z,0
2017-07-20T01:55:52.473Z,0
2017-07-20T01:57:05.045Z,0
2017-07-20T01:58:17.682Z,0
2017-07-20T01:59:30.009Z,0
2017-07-20T02:00:42.670Z,0
2017-07-20T02:01:55.313Z,0
2017-07-20T02:03:07.917Z,0
2017-07-20T02:04:20.534Z,0
2017-07-20T02:05:33.143Z,0
2017-07-20T02:06:45.725Z,0
2017-07-20T02:07:58.337Z,0
2017-07-20T02:09:10.983Z,0
2017-07-20T02:10:23.279Z,0
2017-07-20T02:11:35.830Z,0
2017-07-20T02:12:48.203Z,0
2017-07-20T02:14:00.844Z,0
2017-07-20T02:15:13.488Z,0
2017-07-20T02:16:26.182Z,0
2017-07-20T02:17:38.831Z,0
2017-07-20T02:18:51.371Z,0
2017-07-20T02:20:03.673Z,0
2017-07-20T02:21:15.936Z,0
2017-07-20T02:22:28.293Z,0
2017-07-20T02:23:40.604Z,0
2017-07-20T02:24:52.878Z,0
2017-07-20T02:26:05.503Z,0
2017-07-20T02:27:18.152Z,0
2017-07-20T02:28:30.722Z,0
2017-07-20T02:29:43.403Z,0
2017-07-20T02:30:56.041Z,0
2017-07-20T02:32:08.361Z,0
2017-07-20T02:33:20.963Z,0
2017-07-20T02:34:33.572Z,0
2017-07-20T02:35:45.992Z,0
2017-07-20T02:36:58.616Z,0
2017-07-20T02:38:11.225Z,0
2017-07-20T02:39:23.551Z,0
2017-07-20T02:40:35.836Z,0
2017-07-20T02:41:48.171Z,0
2017-07-20T02:43:00.740Z,0
2017-07-20T02:44:13.328Z,0
2017-07-20T02:45:25.580Z,0
2017-07-20T02:46:37.820Z,0
2017-07-20T02:47:50.446Z,0
2017-07-20T02:49:02.452Z,0
2017-07-20T02:50:15.105Z,0
2017-07-20T02:51:27.771Z,0
2017-07-20T02:52:40.379Z,0
2017-07-20T02:53:53.010Z,0
2017-07-20T02:55:05.325Z,0
2017-07-20T02:56:17.945Z,0
2017-07-20T02:57:30.269Z,0
2017-07-20T02:58:42.854Z,0
2017-07-20T02:59:55.451Z,0
2017-07-20T03:01:07.775Z,0
2017-07-20T03:02:19.776Z,0
2017-07-20T03:03:32.346Z,0
2017-07-20T03:04:44.979Z,0
2017-07-20T03:05:57.267Z,0
2017-07-20T03:07:09.885Z,0
2017-07-20T03:08:22.444Z,0
2017-07-20T03:09:34.770Z,0
2017-07-20T03:10:47.458Z,0
2017-07-20T03:12:00.041Z,0
2017-07-20T03:13:12.363Z,0
2017-07-20T03:14:24.660Z,0
2017-07-20T03:15:37.488Z,5
2017-07-20T03:16:49.515Z,5
2017-07-20T03:18:01.859Z,5
2017-07-20T03:19:14.190Z,5
2017-07-20T03:20:26.799Z,5
2017-07-20T03:21:39.423Z,5
2017-07-20T03:22:51.996Z,10
2017-07-20T03:24:03.728Z,10
2017-07-20T03:25:16.422Z,15
2017-07-20T03:26:29.010Z,15
2017-07-20T03:27:41.617Z,15
2017-07-20T03:28:54.288Z,15
2017-07-20T03:30:06.685Z,15
2017-07-20T03:31:19.312Z,15
2017-07-20T03:32:31.973Z,15
2017-07-20T03:33:44.595Z,20
2017-07-20T03:34:57.185Z,20
2017-07-20T03:36:09.730Z,20
2017-07-20T03:37:22.273Z,25
2017-07-20T03:38:34.905Z,25
2017-07-20T03:39:47.496Z,25
2017-07-20T03:41:00.118Z,30
2017-07-20T03:42:12.422Z,30
2017-07-20T03:43:25.007Z,35
2017-07-20T03:44:37.597Z,35
2017-07-20T03:45:50.218Z,40
2017-07-20T03:47:02.847Z,40
2017-07-20T03:48:14.833Z,40
2017-07-20T03:49:27.445Z,40
2017-07-20T03:50:40.035Z,45
2017-07-20T03:51:52.681Z,45
2017-07-20T03:53:05.286Z,45
2017-07-20T03:54:17.604Z,45
2017-07-20T03:55:30.226Z,45
2017-07-20T03:56:42.824Z,50
2017-07-20T03:57:55.170Z,50
2017-07-20T03:59:07.782Z,50
2017-07-20T04:00:20.113Z,50
2017-07-20T04:01:32.431Z,50
2017-07-20T04:02:44.645Z,50
2017-07-20T04:03:57.246Z,55
2017-07-20T04:05:09.313Z,55
2017-07-20T04:06:21.935Z,55
2017-07-20T04:07:34.577Z,55
2017-07-20T04:08:46.953Z,55
2017-07-20T04:09:59.342Z,55
2017-07-20T04:11:11.928Z,55
2017-07-20T04:12:24.568Z,60
2017-07-20T04:13:37.218Z,60
2017-07-20T04:14:49.880Z,55
2017-07-20T04:16:02.498Z,55
2017-07-20T04:17:15.122Z,55
2017-07-20T04:18:27.786Z,55
2017-07-20T04:19:40.386Z,55
2017-07-20T04:20:53.237Z,60
2017-07-20T04:22:05.936Z,60
2017-07-20T04:23:18.549Z,60
2017-07-20T04:24:30.845Z,65
2017-07-20T04:25:43.443Z,70
2017-07-20T04:26:56.074Z,70
2017-07-20T04:28:08.386Z,75
2017-07-20T04:29:20.952Z,80
2017-07-20T04:30:33.518Z,85
2017-07-20T04:31:46.111Z,90
2017-07-20T04:32:58.417Z,90
2017-07-20T04:34:11.015Z,95
2017-07-20T04:35:23.283Z,100
2017-07-20T04:36:35.965Z,105
2017-07-20T04:37:48.284Z,110
2017-07-20T04:39:00.898Z,110
2017-07-20T04:40:13.241Z,115
2017-07-20T04:41:25.844Z,115
2017-07-20T04:42:38.684Z,115
2017-07-20T04:43:51.258Z,115
2017-07-20T04:45:03.855Z,115
2017-07-20T04:46:16.470Z,115
2017-07-20T04:47:29.097Z,115
2017-07-20T04:48:41.419Z,120
2017-07-20T04:49:54.043Z,125
2017-07-20T04:51:06.649Z,130
2017-07-20T04:52:18.931Z,135
2017-07-20T04:53:31.510Z,140
2017-07-20T04:54:43.894Z,140
2017-07-20T04:55:56.513Z,140
2017-07-20T04:57:09.112Z,140
2017-07-20T04:58:21.739Z,140
2017-07-20T04:59:34.051Z,145
2017-07-20T05:00:46.737Z,145
2017-07-20T05:01:58.806Z,145
2017-07-20T05:03:11.107Z,145
2017-07-20T05:04:23.684Z,145
2017-07-20T05:05:35.712Z,150
2017-07-20T05:06:48.351Z,150
2017-07-20T05:08:00.616Z,150
2017-07-20T05:09:13.448Z,150
2017-07-20T05:10:26.074Z,150
2017-07-20T05:11:38.685Z,150
2017-07-20T05:12:51.261Z,150
2017-07-20T05:14:03.802Z,150
2017-07-20T05:15:16.381Z,150
2017-07-20T05:16:28.986Z,155
2017-07-20T05:17:41.283Z,155
2017-07-20T05:18:53.883Z,155
2017-07-20T05:20:06.708Z,155
2017-07-20T05:21:19.007Z,160
2017-07-20T05:22:31.625Z,165
2017-07-20T05:23:43.942Z,175
2017-07-20T05:24:56.212Z,175
2017-07-20T05:26:07.848Z,180
2017-07-20T05:27:20.144Z,185
2017-07-20T05:28:32.495Z,185
2017-07-20T05:29:45.090Z,190
2017-07-20T05:30:57.695Z,205
2017-07-20T05:32:10.359Z,225
2017-07-20T05:33:22.655Z,265
2017-07-20T05:34:34.610Z,315
2017-07-20T05:35:47.255Z,265
2017-07-20T05:36:59.612Z,210
2017-07-20T05:38:12.309Z,190
2017-07-20T05:39:24.676Z,190
2017-07-20T05:40:37.263Z,190
2017-07-20T05:41:49.527Z,195
2017-07-20T05:43:02.135Z,200
2017-07-20T05:44:14.470Z,215
2017-07-20T05:45:27.094Z,220
2017-07-20T05:46:39.661Z,220
2017-07-20T05:47:52.278Z,220
2017-07-20T05:49:04.589Z,225
2017-07-20T05:50:17.182Z,225
2017-07-20T05:51:29.773Z,220
2017-07-20T05:52:42.397Z,220
2017-07-20T05:53:55.021Z,220
2017-07-20T05:55:07.064Z,220
2017-07-20T05:56:19.649Z,220
2017-07-20T05:57:32.280Z,225
2017-07-20T05:58:44.902Z,230
2017-07-20T05:59:57.552Z,230
2017-07-20T06:01:09.849Z,230
2017-07-20T06:02:22.431Z,230
2017-07-20T06:03:35.054Z,235
2017-07-20T06:04:47.641Z,240
2017-07-20T06:05:59.964Z,245
2017-07-20T06:07:12.623Z,255
2017-07-20T06:08:25.316Z,260
2017-07-20T06:09:37.947Z,265
2017-07-20T06:10:50.303Z,260
2017-07-20T06:12:02.904Z,270
2017-07-20T06:13:15.521Z,275
2017-07-20T06:14:27.799Z,285
2017-07-20T06:15:40.066Z,285
2017-07-20T06:16:52.681Z,290
2017-07-20T06:18:05.288Z,325
2017-07-20T06:19:17.608Z,355
2017-07-20T06:20:30.208Z,350
2017-07-20T06:21:42.817Z,330
2017-07-20T06:22:55.120Z,380
2017-07-20T06:24:06.531Z,460
2017-07-20T06:25:18.785Z,455
2017-07-20T06:26:30.767Z,425
2017-07-20T06:27:43.066Z,435
2017-07-20T06:28:55.685Z,495
2017-07-20T06:30:08.294Z,510
2017-07-20T06:31:20.573Z,490
2017-07-20T06:32:33.213Z,535
2017-07-20T06:33:45.867Z,685
2017-07-20T06:34:58.496Z,680
2017-07-20T06:36:11.074Z,740
2017-07-20T06:37:23.670Z,895
2017-07-20T06:38:36.295Z,890
2017-07-20T06:39:48.911Z,780
2017-07-20T06:41:01.534Z,685
2017-07-20T06:42:14.177Z,675
2017-07-20T06:43:26.843Z,735
2017-07-20T06:44:39.449Z,785
2017-07-20T06:45:51.770Z,750
2017-07-20T06:47:04.054Z,915
2017-07-20T06:48:16.667Z,1010
2017-07-20T06:49:29.265Z,1065
2017-07-20T06:50:41.868Z,1030
2017-07-20T06:51:54.473Z,925
2017-07-20T06:53:06.829Z,820
2017-07-20T06:54:19.486Z,640
2017-07-20T06:55:31.794Z,480
2017-07-20T06:56:43.539Z,535
2017-07-20T06:57:56.150Z,490
2017-07-20T06:59:08.797Z,450
2017-07-20T07:00:21.422Z,470
2017-07-20T07:01:33.739Z,510
2017-07-20T07:02:46.321Z,580
2017-07-20T07:03:58.962Z,625
2017-07-20T07:05:11.247Z,710
2017-07-20T07:06:23.249Z,655
2017-07-20T07:07:35.884Z,750
2017-07-20T07:08:48.526Z,1005
2017-07-20T07:10:00.533Z,1110
2017-07-20T07:11:13.172Z,1285
2017-07-20T07:12:25.783Z,1355
2017-07-20T07:13:38.095Z,1215
2017-07-20T07:14:50.669Z,1335
2017-07-20T07:16:03.301Z,1285
2017-07-20T07:17:15.636Z,1260
2017-07-20T07:18:27.962Z,1285
2017-07-20T07:19:40.272Z,1085
2017-07-20T07:20:52.570Z,905
2017-07-20T07:22:05.235Z,795
2017-07-20T07:23:17.855Z,460
2017-07-20T07:24:30.171Z,480
2017-07-20T07:25:42.797Z,510
2017-07-20T07:26:54.479Z,540
2017-07-20T07:28:06.766Z,895
2017-07-20T07:29:19.368Z,915
2017-07-20T07:30:31.973Z,1115
2017-07-20T07:31:43.977Z,1350
2017-07-20T07:32:56.531Z,1380
2017-07-20T07:34:09.213Z,1495
2017-07-20T07:35:21.832Z,1530
2017-07-20T07:36:34.093Z,1595
2017-07-20T07:37:46.421Z,1665
2017-07-20T07:38:58.761Z,1725
2017-07-20T07:40:11.363Z,1755
2017-07-20T07:41:23.977Z,1840
2017-07-20T07:42:36.253Z,1685
2017-07-20T07:43:48.901Z,1360
2017-07-20T07:45:01.582Z,880
2017-07-20T07:46:13.643Z,650
2017-07-20T07:47:26.339Z,600
2017-07-20T07:48:39.028Z,590
2017-07-20T07:49:51.666Z,450
2017-07-20T07:51:04.301Z,520
2017-07-20T07:52:16.629Z,775
2017-07-20T07:53:29.265Z,650
2017-07-20T07:54:41.845Z,735
2017-07-20T07:55:54.511Z,800
2017-07-20T07:57:06.874Z,1310
2017-07-20T07:58:19.165Z,1130
2017-07-20T07:59:31.792Z,1070
2017-07-20T08:00:44.124Z,1095
2017-07-20T08:01:56.482Z,1135
2017-07-20T08:03:08.806Z,1190
2017-07-20T08:04:21.435Z,1420
2017-07-20T08:05:33.824Z,1700
2017-07-20T08:06:45.842Z,1840
2017-07-20T08:07:58.469Z,1805
2017-07-20T08:09:10.706Z,1750
2017-07-20T08:10:22.419Z,1835
2017-07-20T08:11:34.834Z,1950
2017-07-20T08:12:46.846Z,1970
2017-07-20T08:13:58.820Z,1895
2017-07-20T08:15:11.390Z,1915
2017-07-20T08:16:23.394Z,1925
2017-07-20T08:17:35.712Z,1905
2017-07-20T08:18:48.335Z,1975
2017-07-20T08:20:00.711Z,1960
2017-07-20T08:21:13.269Z,2015
2017-07-20T08:22:25.827Z,1990
2017-07-20T08:23:38.161Z,2010
2017-07-20T08:24:50.826Z,2075
2017-07-20T08:26:03.430Z,2070
2017-07-20T08:27:16.099Z,2025
2017-07-20T08:28:28.429Z,1995
2017-07-20T08:29:41.097Z,2095
2017-07-20T08:30:53.719Z,2150
2017-07-20T08:32:06.335Z,2135
2017-07-20T08:33:18.662Z,2060
2017-07-20T08:34:30.974Z,2055
2017-07-20T08:35:43.520Z,2085
2017-07-20T08:36:55.821Z,2095
2017-07-20T08:38:08.459Z,2235
2017-07-20T08:39:20.483Z,2195
2017-07-20T08:40:33.051Z,2175
2017-07-20T08:41:45.653Z,2000
2017-07-20T08:42:57.672Z,1940
2017-07-20T08:44:10.264Z,1995
2017-07-20T08:45:22.610Z,1770
2017-07-20T08:46:34.885Z,1685
2017-07-20T08:47:47.513Z,1575
2017-07-20T08:48:59.835Z,1460
2017-07-20T08:50:12.118Z,1370
2017-07-20T08:51:24.500Z,1225
2017-07-20T08:52:36.835Z,1160
2017-07-20T08:53:49.473Z,990
2017-07-20T08:55:02.095Z,920
2017-07-20T08:56:14.131Z,820
2017-07-20T08:57:26.733Z,785
2017-07-20T08:58:39.040Z,760
2017-07-20T08:59:51.604Z,745
2017-07-20T09:01:03.588Z,750
2017-07-20T09:02:16.229Z,760
2017-07-20T09:03:28.777Z,800
2017-07-20T09:04:40.724Z,810
2017-07-20T09:05:53.016Z,805
2017-07-20T09:07:05.289Z,795
2017-07-20T09:08:17.866Z,880
2017-07-20T09:09:30.131Z,850
2017-07-20T09:10:42.652Z,810
2017-07-20T09:11:55.240Z,810
2017-07-20T09:13:07.241Z,815
2017-07-20T09:14:19.264Z,825
2017-07-20T09:15:31.865Z,845
2017-07-20T09:16:44.234Z,860
2017-07-20T09:17:56.505Z,875
2017-07-20T09:19:09.112Z,885
2017-07-20T09:20:20.767Z,910
2017-07-20T09:21:33.293Z,890
2017-07-20T09:22:45.933Z,875
2017-07-20T09:23:57.955Z,880
2017-07-20T09:25:10.302Z,905
2017-07-20T09:26:22.277Z,910
2017-07-20T09:27:34.894Z,935
2017-07-20T09:28:47.502Z,960
2017-07-20T09:30:00.116Z,955
2017-07-20T09:31:12.781Z,970
2017-07-20T09:32:25.394Z,960
2017-07-20T09:33:37.999Z,975
2017-07-20T09:34:50.622Z,1020
2017-07-20T09:36:02.914Z,1105
2017-07-20T09:37:15.484Z,1210
2017-07-20T09:38:28.104Z,1325
2017-07-20T09:39:40.409Z,1390
2017-07-20T09:40:53.064Z,1575
2017-07-20T09:42:05.344Z,1665
2017-07-20T09:43:17.997Z,1835
2017-07-20T09:44:30.285Z,1900
2017-07-20T09:45:42.886Z,2090
2017-07-20T09:46:55.128Z,2180
2017-07-20T09:48:07.697Z,2330
2017-07-20T09:49:20.330Z,2435
2017-07-20T09:50:32.665Z,2540
2017-07-20T09:51:45.268Z,2760
2017-07-20T09:52:57.534Z,2930
2017-07-20T09:54:09.827Z,2885
2017-07-20T09:55:22.206Z,3155
2017-07-20T09:56:34.870Z,3330
2017-07-20T09:57:47.165Z,2910
2017-07-20T09:58:59.134Z,2730
2017-07-20T10:00:11.157Z,3160
2017-07-20T10:01:23.795Z,3235
2017-07-20T10:02:36.426Z,3105
2017-07-20T10:03:48.675Z,3210
2017-07-20T10:05:01.064Z,3200
2017-07-20T10:06:13.712Z,3445
2017-07-20T10:07:25.763Z,3400
2017-07-20T10:08:38.106Z,3240
2017-07-20T10:09:50.702Z,3335
2017-07-20T10:11:03.284Z,3480
2017-07-20T10:12:15.906Z,3580
2017-07-20T10:13:28.515Z,3365
2017-07-20T10:14:40.512Z,3320
2017-07-20T10:15:53.096Z,3425
2017-07-20T10:17:05.400Z,3480
2017-07-20T10:18:17.977Z,3505
2017-07-20T10:19:30.334Z,3420
2017-07-20T10:20:42.613Z,3590
2017-07-20T10:21:55.306Z,2945
2017-07-20T10:23:07.859Z,3245
2017-07-20T10:24:20.113Z,3175
2017-07-20T10:25:32.438Z,3290
2017-07-20T10:26:45.095Z,3240
2017-07-20T10:27:57.761Z,3230
2017-07-20T10:29:10.387Z,2605
2017-07-20T10:30:22.411Z,3445
2017-07-20T10:31:35.031Z,3235
2017-07-20T10:32:46.996Z,3410
2017-07-20T10:33:59.616Z,2325
2017-07-20T10:35:11.999Z,2690
2017-07-20T10:36:24.336Z,3405
2017-07-20T10:37:36.984Z,3280
2017-07-20T10:38:49.574Z,3120
2017-07-20T10:40:01.883Z,2985
2017-07-20T10:41:14.179Z,3145
2017-07-20T10:42:26.806Z,3300
2017-07-20T10:43:39.402Z,3360
2017-07-20T10:44:51.387Z,3115
2017-07-20T10:46:03.957Z,3135
2017-07-20T10:47:16.620Z,2845
2017-07-20T10:48:29.274Z,2875
2017-07-20T10:49:41.889Z,2830
2017-07-20T10:50:54.477Z,2785
2017-07-20T10:52:07.097Z,2875
2017-07-20T10:53:19.718Z,2715
2017-07-20T10:54:32.306Z,2545
2017-07-20T10:55:44.935Z,2730
2017-07-20T10:56:56.646Z,2175
2017-07-20T10:58:09.004Z,2500
2017-07-20T10:59:21.306Z,2530
2017-07-20T11:00:33.602Z,2050
2017-07-20T11:01:46.224Z,2185
2017-07-20T11:02:58.217Z,2135
2017-07-20T11:04:10.582Z,2125
2017-07-20T11:05:23.178Z,1410
2017-07-20T11:06:35.534Z,2080
2017-07-20T11:07:47.545Z,1960
2017-07-20T11:09:00.154Z,1965
2017-07-20T11:10:12.156Z,1925
2017-07-20T11:11:24.780Z,1895
2017-07-20T11:12:37.439Z,1985
2017-07-20T11:13:49.984Z,2010
2017-07-20T11:15:02.279Z,1795
2017-07-20T11:16:14.577Z,1750
2017-07-20T11:17:26.869Z,1070
2017-07-20T11:18:39.496Z,1085
2017-07-20T11:19:51.761Z,1385
2017-07-20T11:21:04.407Z,1745
2017-07-20T11:22:16.107Z,1950
2017-07-20T11:23:28.124Z,1970
2017-07-20T11:24:39.834Z,1870
2017-07-20T11:25:52.095Z,1870
2017-07-20T11:27:04.666Z,1925
2017-07-20T11:28:17.257Z,2285
2017-07-20T11:29:29.834Z,3300
2017-07-20T11:30:42.425Z,2685
2017-07-20T11:31:55.075Z,795
2017-07-20T11:33:07.718Z,920
2017-07-20T11:34:20.338Z,1610
2017-07-20T11:35:32.915Z,4845
2017-07-20T11:36:45.505Z,4090
2017-07-20T11:37:58.090Z,4385
2017-07-20T11:39:10.724Z,810
2017-07-20T11:40:22.442Z,2740
2017-07-20T11:41:35.067Z,3395
2017-07-20T11:42:47.677Z,3890
2017-07-20T11:43:59.923Z,3685
2017-07-20T11:45:12.524Z,3930
2017-07-20T11:46:24.176Z,3965
2017-07-20T11:47:36.471Z,3965
2017-07-20T11:48:49.068Z,3865
2017-07-20T11:50:01.663Z,3930
2017-07-20T11:51:14.284Z,2910
2017-07-20T11:52:26.874Z,3625
2017-07-20T11:53:39.449Z,3920
2017-07-20T11:54:51.744Z,3955
2017-07-20T11:56:04.026Z,4135
2017-07-20T11:57:16.867Z,2895
2017-07-20T11:58:29.485Z,3510
2017-07-20T11:59:42.083Z,1380
2017-07-20T12:00:54.398Z,3890
2017-07-20T12:02:06.706Z,1090
2017-07-20T12:03:19.040Z,3945
2017-07-20T12:04:31.614Z,1180
2017-07-20T12:05:43.900Z,3870
2017-07-20T12:06:56.230Z,1525
2017-07-20T12:08:08.848Z,3935
2017-07-20T12:09:21.450Z,1180
2017-07-20T12:10:33.797Z,910
2017-07-20T12:11:46.423Z,920
2017-07-20T12:12:59.091Z,975
2017-07-20T12:14:11.457Z,1155
2017-07-20T12:15:24.050Z,1970
2017-07-20T12:16:36.637Z,2170
2017-07-20T12:17:49.285Z,3675
2017-07-20T12:19:01.890Z,4615
2017-07-20T12:20:14.565Z,4495
2017-07-20T12:21:26.859Z,4520
2017-07-20T12:22:39.478Z,1290
2017-07-20T12:23:52.128Z,810
2017-07-20T12:25:04.495Z,1405
2017-07-20T12:26:16.762Z,2095
2017-07-20T12:27:29.409Z,3515
2017-07-20T12:28:41.404Z,3690
2017-07-20T12:29:53.728Z,2265
2017-07-20T12:31:06.021Z,3630
2017-07-20T12:32:18.316Z,3400
2017-07-20T12:33:30.613Z,1135
2017-07-20T12:34:42.346Z,1055
2017-07-20T12:35:54.646Z,1060
2017-07-20T12:37:07.006Z,4435
2017-07-20T12:38:19.345Z,5520
2017-07-20T12:39:31.634Z,4710
2017-07-20T12:40:44.149Z,4995
2017-07-20T12:41:56.818Z,4790
2017-07-20T12:43:09.122Z,5020
2017-07-20T12:44:21.758Z,5295
2017-07-20T12:45:34.414Z,2300
2017-07-20T12:46:46.731Z,1065
2017-07-20T12:47:59.046Z,1400
2017-07-20T12:49:11.696Z,1845
2017-07-20T12:50:23.987Z,2050
2017-07-20T12:51:36.278Z,2875
2017-07-20T12:52:48.550Z,1445
2017-07-20T12:54:00.592Z,1475
2017-07-20T12:55:12.638Z,2345
2017-07-20T12:56:25.286Z,3595
2017-07-20T12:57:37.542Z,4325
2017-07-20T12:58:50.194Z,4090
2017-07-20T13:00:02.503Z,2875
2017-07-20T13:01:14.822Z,4320
2017-07-20T13:02:27.125Z,2675
2017-07-20T13:03:39.713Z,4450
2017-07-20T13:04:52.338Z,3410
2017-07-20T13:06:04.929Z,1620
2017-07-20T13:07:17.205Z,1505
2017-07-20T13:08:29.843Z,2665
2017-07-20T13:09:42.459Z,3290
2017-07-20T13:10:54.762Z,2220
2017-07-20T13:12:07.340Z,1945
2017-07-20T13:13:19.654Z,3585
2017-07-20T13:14:31.923Z,2340
2017-07-20T13:15:43.596Z,2330
2017-07-20T13:16:56.165Z,1975
2017-07-20T13:18:08.470Z,2050
2017-07-20T13:19:20.462Z,4000
2017-07-20T13:20:33.052Z,2635
2017-07-20T13:21:45.379Z,2140
2017-07-20T13:22:57.973Z,1780
2017-07-20T13:24:10.541Z,3955
2017-07-20T13:25:22.868Z,2355
2017-07-20T13:26:35.132Z,1230
2017-07-20T13:27:47.736Z,2850
2017-07-20T13:29:00.378Z,3530
2017-07-20T13:30:12.945Z,4365
2017-07-20T13:31:25.509Z,3525
2017-07-20T13:32:37.763Z,2840
2017-07-20T13:33:50.395Z,2850
2017-07-20T13:35:02.422Z,940
2017-07-20T13:36:15.024Z,805
2017-07-20T13:37:27.275Z,675
2017-07-20T13:38:39.569Z,585
2017-07-20T13:39:51.880Z,495
2017-07-20T13:41:04.214Z,470
2017-07-20T13:42:16.533Z,440
2017-07-20T13:43:29.158Z,430
2017-07-20T13:44:41.822Z,410
2017-07-20T13:45:54.399Z,395
2017-07-20T13:47:06.761Z,450
2017-07-20T13:48:19.027Z,525
2017-07-20T13:49:31.623Z,490
2017-07-20T13:50:43.902Z,445
2017-07-20T13:51:56.450Z,475
2017-07-20T13:53:09.047Z,480
2017-07-20T13:54:21.619Z,460
2017-07-20T13:55:33.617Z,460
2017-07-20T13:56:46.254Z,450
2017-07-20T13:57:58.506Z,445
2017-07-20T13:59:11.123Z,455
2017-07-20T14:00:23.374Z,535
2017-07-20T14:01:35.925Z,2940
2017-07-20T14:02:48.541Z,565
2017-07-20T14:04:00.833Z,495
2017-07-20T14:05:12.803Z,465
2017-07-20T14:06:25.409Z,460
2017-07-20T14:07:37.995Z,455
2017-07-20T14:08:50.618Z,440
2017-07-20T14:10:02.909Z,1025
2017-07-20T14:11:15.210Z,645
2017-07-20T14:12:27.878Z,760
2017-07-20T14:13:39.572Z,735
2017-07-20T14:14:52.189Z,655
2017-07-20T14:16:04.802Z,610
2017-07-20T14:17:17.389Z,525
2017-07-20T14:18:29.667Z,515
2017-07-20T14:19:41.978Z,555
2017-07-20T14:20:54.537Z,615
2017-07-20T14:22:06.821Z,770
2017-07-20T14:23:18.772Z,575
2017-07-20T14:24:31.061Z,550
2017-07-20T14:25:43.688Z,535
2017-07-20T14:26:56.016Z,525
2017-07-20T14:28:08.628Z,575
2017-07-20T14:29:20.963Z,525
2017-07-20T14:30:33.248Z,520
2017-07-20T14:31:45.549Z,560
2017-07-20T14:32:58.159Z,555
2017-07-20T14:34:10.717Z,555
2017-07-20T14:35:22.752Z,610
2017-07-20T14:36:34.702Z,1400
2017-07-20T14:37:46.743Z,1380
2017-07-20T14:38:59.048Z,850
2017-07-20T14:40:11.766Z,1275
2017-07-20T14:41:24.131Z,1805
2017-07-20T14:42:36.392Z,1810
2017-07-20T14:43:48.734Z,1630
2017-07-20T14:45:01.078Z,1035
2017-07-20T14:46:13.369Z,675
2017-07-20T14:47:25.324Z,605
2017-07-20T14:48:37.957Z,565
2017-07-20T14:49:50.519Z,670
2017-07-20T14:51:02.781Z,540
2017-07-20T14:52:15.142Z,550
2017-07-20T14:53:27.450Z,580
2017-07-20T14:54:40.028Z,620
2017-07-20T14:55:52.631Z,655
2017-07-20T14:57:04.630Z,660
2017-07-20T14:58:16.931Z,630
2017-07-20T14:59:29.531Z,585
2017-07-20T15:00:42.115Z,560
2017-07-20T15:01:54.766Z,560
2017-07-20T15:03:07.381Z,585
2017-07-20T15:04:19.709Z,605
2017-07-20T15:05:32.364Z,610
2017-07-20T15:06:44.945Z,620
2017-07-20T15:07:57.565Z,605
2017-07-20T15:09:10.174Z,575
2017-07-20T15:10:22.787Z,535
2017-07-20T15:11:35.403Z,500
2017-07-20T15:12:47.679Z,475
2017-07-20T15:14:00.018Z,445
2017-07-20T15:15:12.026Z,395
2017-07-20T15:16:24.591Z,335
2017-07-20T15:17:37.176Z,270
2017-07-20T15:18:49.484Z,235
2017-07-20T15:20:02.161Z,225
2017-07-20T15:21:14.470Z,235
2017-07-20T15:22:27.092Z,250
2017-07-20T15:23:39.690Z,245
2017-07-20T15:24:52.032Z,215
2017-07-20T15:26:04.593Z,180
2017-07-20T15:27:16.906Z,155
2017-07-20T15:28:28.906Z,140
2017-07-20T15:29:41.172Z,135
2017-07-20T15:30:53.771Z,130
2017-07-20T15:32:06.034Z,120
2017-07-20T15:33:18.347Z,125
2017-07-20T15:34:30.926Z,130
2017-07-20T15:35:43.448Z,135
2017-07-20T15:36:56.090Z,135
2017-07-20T15:38:08.673Z,140
2017-07-20T15:39:21.020Z,140
2017-07-20T15:40:33.315Z,140
2017-07-20T15:41:45.632Z,135
2017-07-20T15:42:58.222Z,145
2017-07-20T15:44:09.578Z,160
2017-07-20T15:45:22.215Z,180
2017-07-20T15:46:34.836Z,200
2017-07-20T15:47:47.155Z,220
2017-07-20T15:48:59.467Z,225
2017-07-20T15:50:11.421Z,225
2017-07-20T15:51:23.096Z,225
2017-07-20T15:52:35.638Z,225
2017-07-20T15:53:47.910Z,230
2017-07-20T15:55:00.533Z,225
2017-07-20T15:56:12.849Z,215
2017-07-20T15:57:25.198Z,205
2017-07-20T15:58:37.480Z,190
2017-07-20T15:59:50.050Z,180
2017-07-20T16:01:02.725Z,170
2017-07-20T16:02:15.018Z,160
2017-07-20T16:03:27.627Z,160
2017-07-20T16:04:39.259Z,160
2017-07-20T16:05:51.873Z,180
2017-07-20T16:07:04.206Z,205
2017-07-20T16:08:16.489Z,230
2017-07-20T16:09:28.786Z,250
2017-07-20T16:10:41.384Z,280
2017-07-20T16:11:53.975Z,275
2017-07-20T16:13:06.261Z,255
2017-07-20T16:14:18.864Z,245
2017-07-20T16:15:31.439Z,265
2017-07-20T16:16:44.049Z,310
2017-07-20T16:17:56.355Z,355
2017-07-20T16:19:08.691Z,375
2017-07-20T16:20:21.311Z,380
2017-07-20T16:21:33.283Z,365
2017-07-20T16:22:45.242Z,335
2017-07-20T16:23:57.624Z,305
2017-07-20T16:25:09.913Z,265
2017-07-20T16:26:22.500Z,230
2017-07-20T16:27:35.058Z,215
2017-07-20T16:28:47.679Z,205
2017-07-20T16:29:59.697Z,200
2017-07-20T16:31:12.010Z,195
2017-07-20T16:32:24.333Z,190
2017-07-20T16:33:36.262Z,190
2017-07-20T16:34:48.871Z,195
2017-07-20T16:36:01.421Z,205
2017-07-20T16:37:13.678Z,205
2017-07-20T16:38:25.351Z,200
2017-07-20T16:39:37.940Z,195
2017-07-20T16:40:50.278Z,190
2017-07-20T16:42:02.577Z,185
2017-07-20T16:43:14.892Z,195